This is the latest recevied weather packets stored in our database for station/object p43g-13. If no packets are shown the sender has not sent any weather packets the latest 10 day(s).
| Time | Temp. | Humidity | Pressure | Rain* | Wind** | Luminosity | Snow |
|---|---|---|---|---|---|---|---|
| 1787937909 | 30.56° C | 76% | 1011.1 hPa | 0 mm | - | 296 W/m² | - |
| 1787937609 | 31.11° C | 76% | 1011.4 hPa | 0 mm | - | 292 W/m² | - |
| 1787937309 | 31.11° C | 75% | 1011.5 hPa | 0 mm | - | 359 W/m² | - |
| 1787937009 | 31.11° C | 75% | 1011.4 hPa | 0 mm | - | 156 W/m² | - |
| 1787936709 | 31.11° C | 75% | 1011.8 hPa | 0 mm | - | 203 W/m² | - |
| 1787936408 | 31.11° C | 75% | 1011.8 hPa | 0 mm | - | 285 W/m² | - |
| 1787936108 | 31.11° C | 75% | 1011.8 hPa | 0 mm | - | 305 W/m² | - |
| 1787935809 | 30.56° C | 76% | 1011.7 hPa | 0 mm | - | 442 W/m² | - |
| 1787935508 | 31.11° C | 75% | 1011.8 hPa | 0 mm | - | 305 W/m² | - |
| 1787935209 | 31.11° C | 75% | 1012 hPa | 0 mm | - | 402 W/m² | - |
| 1787934910 | 31.11° C | 75% | 1012 hPa | 0 mm | - | 486 W/m² | - |
| 1787934609 | 31.11° C | 72% | 1011.9 hPa | 0 mm | - | 398 W/m² | - |
| 1787934309 | 31.11° C | 74% | 1012.1 hPa | 0 mm | - | 464 W/m² | - |
| 1787934009 | 31.67° C | 72% | 1012.2 hPa | 0 mm | - | 937 W/m² | - |
| 1787933708 | 32.22° C | 70% | 1012.1 hPa | 0 mm | - | 518 W/m² | - |
| 1787933409 | 31.67° C | 72% | 1012.1 hPa | 0 mm | - | 1232 W/m² | - |
| 1787933109 | 31.67° C | 72% | 1012 hPa | 0 mm | - | 935 W/m² | - |
| 1787932809 | 31.67° C | 72% | 1012.2 hPa | 0 mm | - | 1085 W/m² | - |
| 1787932509 | 31.67° C | 72% | 1012.1 hPa | 0 mm | - | 1150 W/m² | - |
| 1787932209 | 31.67° C | 73% | 1012.6 hPa | 0 mm | - | 1159 W/m² | - |
| 1787931909 | 31.67° C | 72% | 1012.5 hPa | 0 mm | - | 461 W/m² | - |
| 1787931609 | 31.67° C | 72% | 1012.5 hPa | 0 mm | - | 955 W/m² | - |
| 1787931309 | 31.67° C | 72% | 1012.4 hPa | 0 mm | - | 314 W/m² | - |
| 1787931008 | 31.67° C | 71% | 1012.6 hPa | 0 mm | - | 1013 W/m² | - |
| 1787930708 | 31.67° C | 71% | 1012.3 hPa | 0 mm | - | 461 W/m² | - |
* Rain latest hour (hover to see other rain measurements)
** Current wind speed in m/s (hover to see current wind gust speed)